Time;durP1;ratioP1;P1;durP2;ratioP2;P2;SDS_P1;SDS_P2;PMS_P1;PMS_P2;Temp;Humidity;BMP_temperature;BMP_pressure;BME280_temperature;BME280_humidity;BME280_pressure;Samples;Min_cycle;Max_cycle;Signal;HPM_P1;HPM_P2
2022/08/23 00:01:38;;;;;;;5.28;2.00;;;19.60;99.90;;;;;;5042722;28;20517;-41
2022/08/23 00:04:11;;;;;;;5.57;2.40;;;19.50;99.90;;;;;;5036454;28;20032;-39
2022/08/23 00:06:37;;;;;;;4.47;1.98;;;19.50;99.90;;;;;;5037164;28;20047;-42
2022/08/23 00:09:03;;;;;;;9.48;2.70;;;19.50;99.90;;;;;;5039590;28;20506;-41
2022/08/23 00:11:34;;;;;;;6.22;2.22;;;19.40;99.90;;;;;;5037263;28;20053;-43
2022/08/23 00:14:13;;;;;;;3.75;2.28;;;19.40;99.90;;;;;;5034572;28;20511;-42
2022/08/23 00:16:40;;;;;;;5.00;2.83;;;19.40;99.90;;;;;;5034934;28;20037;-36
2022/08/23 00:19:08;;;;;;;6.35;2.58;;;19.40;99.90;;;;;;5038627;28;20514;-42
2022/08/23 00:21:37;;;;;;;4.28;2.08;;;19.40;99.90;;;;;;5035801;28;20094;-44
2022/08/23 00:24:05;;;;;;;6.43;2.60;;;19.40;99.90;;;;;;5041436;28;20120;-41
2022/08/23 00:27:00;;;;;;;6.70;2.78;;;19.40;99.90;;;;;;5039171;28;20522;-42
2022/08/23 00:29:30;;;;;;;5.55;2.80;;;19.40;99.90;;;;;;5039480;28;20108;-43
2022/08/23 00:31:56;;;;;;;5.65;2.35;;;19.30;99.90;;;;;;5037267;28;20033;-41
2022/08/23 00:34:22;;;;;;;7.47;2.88;;;19.20;99.90;;;;;;5038417;28;20144;-41
2022/08/23 00:36:48;;;;;;;5.28;2.80;;;19.20;99.90;;;;;;5043302;28;20522;-39
2022/08/23 00:39:16;;;;;;;7.22;2.80;;;19.20;99.90;;;;;;5041135;28;20693;-40
2022/08/23 00:41:43;;;;;;;7.35;2.65;;;19.20;99.90;;;;;;5043070;28;20084;-41
2022/08/23 00:49:57;;;;;;;5.30;2.55;;;19.00;99.90;;;;;;5043562;28;20049;-42
2022/08/23 00:52:32;;;;;;;5.13;2.15;;;18.90;99.90;;;;;;5034077;28;20033;-42
2022/08/23 00:54:58;;;;;;;9.30;3.33;;;18.90;99.90;;;;;;5039009;28;20490;-40
2022/08/23 00:57:26;;;;;;;4.90;2.53;;;18.80;99.90;;;;;;5040955;28;20042;-42
2022/08/23 00:59:52;;;;;;;6.20;2.92;;;18.80;99.90;;;;;;5035449;28;20033;-42
2022/08/23 01:02:18;;;;;;;6.35;2.90;;;18.80;99.90;;;;;;5044872;28;20110;-42
2022/08/23 01:04:50;;;;;;;5.80;3.22;;;18.70;99.90;;;;;;5040981;28;20034;-40
2022/08/23 01:07:36;;;;;;;8.35;2.88;;;18.70;99.90;;;;;;5042662;28;20032;-37
2022/08/23 01:10:13;;;;;;;6.90;2.90;;;18.60;99.90;;;;;;5041340;28;20037;-44
2022/08/23 01:12:45;;;;;;;6.32;2.97;;;18.60;99.90;;;;;;5039502;28;20086;-42
2022/08/23 01:15:34;;;;;;;5.95;3.85;;;18.50;99.90;;;;;;5033518;28;20491;-35
2022/08/23 01:18:04;;;;;;;5.65;3.28;;;18.50;99.90;;;;;;5034600;28;20100;-48
2022/08/23 01:20:47;;;;;;;6.57;3.72;;;18.50;99.90;;;;;;5035248;28;20159;-44
2022/08/23 01:23:40;;;;;;;4.82;3.08;;;18.50;99.90;;;;;;5033247;28;20436;-48
2022/08/23 01:26:07;;;;;;;9.85;4.32;;;18.40;99.90;;;;;;5042687;28;20038;-39
2022/08/23 01:28:33;;;;;;;7.57;3.67;;;18.40;99.90;;;;;;5044975;28;20048;-42
2022/08/23 01:31:00;;;;;;;6.88;3.20;;;18.40;99.90;;;;;;5038277;28;20119;-45
2022/08/23 01:33:26;;;;;;;4.93;3.08;;;18.30;99.90;;;;;;5042103;28;20033;-42
2022/08/23 01:35:56;;;;;;;4.45;2.90;;;18.30;99.90;;;;;;5035188;28;20586;-42
2022/08/23 01:38:23;;;;;;;5.03;3.03;;;18.30;99.90;;;;;;5043583;28;20052;-43
2022/08/23 01:40:50;;;;;;;5.90;3.35;;;18.30;99.90;;;;;;5034289;28;20532;-43
2022/08/23 01:43:18;;;;;;;6.07;3.50;;;18.30;99.90;;;;;;5039506;28;20391;-43
2022/08/23 01:45:45;;;;;;;9.07;4.20;;;18.30;99.90;;;;;;5037339;28;20499;-41
2022/08/23 01:48:12;;;;;;;6.43;3.40;;;18.30;99.90;;;;;;5039581;28;20041;-40
2022/08/23 01:50:38;;;;;;;7.68;3.50;;;18.30;99.90;;;;;;5038358;28;20398;-43
2022/08/23 01:53:04;;;;;;;6.13;3.55;;;18.30;99.90;;;;;;5035275;28;20044;-42
2022/08/23 01:55:30;;;;;;;7.80;3.65;;;18.20;99.90;;;;;;5036764;28;20521;-41
2022/08/23 01:57:58;;;;;;;7.43;4.00;;;18.20;99.90;;;;;;5036571;28;20037;-39
2022/08/23 02:00:29;;;;;;;7.10;3.90;;;18.20;99.90;;;;;;5041776;28;21850;-39
2022/08/23 02:02:55;;;;;;;5.00;3.42;;;18.20;99.90;;;;;;5035546;28;20037;-41
2022/08/23 02:05:21;;;;;;;9.18;4.47;;;18.10;99.90;;;;;;5036669;28;20038;-41
2022/08/23 02:07:48;;;;;;;9.30;4.13;;;18.10;99.90;;;;;;5031973;28;20052;-41
2022/08/23 02:10:14;;;;;;;8.98;4.53;;;18.10;99.90;;;;;;5036891;28;20445;-47
2022/08/23 02:12:39;;;;;;;6.50;4.00;;;18.10;99.90;;;;;;5036128;28;20278;-42
2022/08/23 02:15:06;;;;;;;5.70;3.90;;;18.10;99.90;;;;;;5042119;28;20402;-38
2022/08/23 02:17:32;;;;;;;6.05;3.60;;;18.10;99.90;;;;;;5038318;28;20120;-41
2022/08/23 02:19:58;;;;;;;7.07;3.17;;;18.00;99.90;;;;;;5041944;28;20059;-42
2022/08/23 02:22:24;;;;;;;5.43;3.80;;;18.10;99.90;;;;;;5038375;28;20029;-36
2022/08/23 02:24:50;;;;;;;8.15;4.15;;;18.00;99.90;;;;;;5038129;28;20040;-39
2022/08/23 02:27:15;;;;;;;6.55;3.78;;;18.00;99.90;;;;;;5043345;28;20037;-40
2022/08/23 02:29:45;;;;;;;6.20;3.47;;;18.00;99.90;;;;;;5039141;28;20071;-41
2022/08/23 02:32:13;;;;;;;5.75;3.42;;;18.00;99.90;;;;;;5037161;28;20048;-41
2022/08/23 02:34:40;;;;;;;5.90;2.83;;;17.90;99.90;;;;;;5037012;28;20516;-38
2022/08/23 02:37:08;;;;;;;4.30;3.00;;;17.90;99.90;;;;;;5037447;28;20526;-42
2022/08/23 02:39:34;;;;;;;8.68;3.80;;;17.90;99.90;;;;;;5038330;28;20059;-41
2022/08/23 02:42:00;;;;;;;5.60;3.28;;;17.90;99.90;;;;;;5038789;28;20040;-46
2022/08/23 02:44:26;;;;;;;7.85;4.47;;;17.90;99.90;;;;;;5034984;28;20049;-42
2022/08/23 02:46:52;;;;;;;7.22;3.13;;;17.90;99.90;;;;;;5042314;28;20444;-42
2022/08/23 02:49:17;;;;;;;6.43;4.10;;;17.80;99.90;;;;;;5037872;28;20124;-50
2022/08/23 02:51:44;;;;;;;7.00;4.70;;;17.80;99.90;;;;;;5037720;28;20102;-43
2022/08/23 02:54:09;;;;;;;10.73;4.38;;;17.80;99.90;;;;;;5037495;28;20046;-41
2022/08/23 02:56:35;;;;;;;5.40;3.80;;;17.80;99.90;;;;;;5037871;28;20048;-42
2022/08/23 02:59:02;;;;;;;7.93;5.30;;;17.80;99.90;;;;;;5032018;28;20044;-40
2022/08/23 03:01:31;;;;;;;8.55;5.18;;;17.90;99.90;;;;;;5036288;28;20048;-38
2022/08/23 03:03:59;;;;;;;10.50;5.32;;;17.90;99.90;;;;;;5035710;28;20128;-41
2022/08/23 03:06:25;;;;;;;10.48;5.88;;;17.90;99.90;;;;;;5040051;28;20033;-42
2022/08/23 03:08:50;;;;;;;5.93;4.30;;;17.90;99.90;;;;;;5038348;28;20037;-41
2022/08/23 03:11:22;;;;;;;11.27;5.47;;;17.90;99.90;;;;;;5040354;28;20048;-41
2022/08/23 03:13:49;;;;;;;9.48;5.55;;;17.90;99.90;;;;;;5043722;28;20052;-40
2022/08/23 03:16:16;;;;;;;6.47;4.35;;;17.90;99.90;;;;;;5035128;28;20098;-41
2022/08/23 03:18:42;;;;;;;7.30;4.78;;;17.90;99.90;;;;;;5040208;28;20085;-42
2022/08/23 03:21:08;;;;;;;10.27;5.63;;;17.90;99.90;;;;;;5036813;28;20139;-41
2022/08/23 03:23:35;;;;;;;8.98;4.53;;;17.90;99.90;;;;;;5045591;28;20505;-40
2022/08/23 03:26:03;;;;;;;6.38;4.45;;;17.90;99.90;;;;;;5037628;28;20041;-41
2022/08/23 03:28:29;;;;;;;7.28;4.63;;;17.90;99.90;;;;;;5045952;28;20033;-48
2022/08/23 03:30:55;;;;;;;8.73;5.63;;;17.90;99.90;;;;;;5039420;28;20041;-41
2022/08/23 03:33:22;;;;;;;6.57;5.03;;;17.90;99.90;;;;;;5041438;28;20418;-39
2022/08/23 03:35:48;;;;;;;8.23;4.60;;;18.00;99.90;;;;;;5033659;28;20455;-41
2022/08/23 03:38:17;;;;;;;9.07;4.85;;;18.00;99.90;;;;;;5046738;28;20113;-39
2022/08/23 03:40:42;;;;;;;6.60;4.07;;;18.00;99.90;;;;;;5034590;28;20507;-43
2022/08/23 03:43:09;;;;;;;7.47;3.92;;;18.00;99.90;;;;;;5041330;28;20092;-40
2022/08/23 03:45:34;;;;;;;6.70;4.28;;;17.90;99.90;;;;;;5040614;28;20127;-44
2022/08/23 03:48:00;;;;;;;5.45;4.15;;;17.90;99.90;;;;;;5047320;28;20119;-41
2022/08/23 03:50:26;;;;;;;5.95;3.30;;;17.90;99.90;;;;;;5045732;28;20061;-42
2022/08/23 03:52:52;;;;;;;10.63;5.18;;;17.90;99.90;;;;;;5034203;28;20457;-41
2022/08/23 03:55:18;;;;;;;7.50;4.95;;;17.90;99.90;;;;;;5043006;28;20493;-42
2022/08/23 03:57:44;;;;;;;6.10;4.10;;;17.90;99.90;;;;;;5042991;28;20065;-43
2022/08/23 04:00:12;;;;;;;6.82;4.43;;;17.90;99.90;;;;;;5039008;28;20052;-42
2022/08/23 04:02:38;;;;;;;6.18;3.92;;;17.90;99.90;;;;;;5042784;28;20411;-39
2022/08/23 04:05:07;;;;;;;8.50;4.25;;;17.90;99.90;;;;;;5039304;28;20477;-41
2022/08/23 04:07:34;;;;;;;6.13;4.35;;;17.80;99.90;;;;;;5048084;28;20029;-51
2022/08/23 04:10:00;;;;;;;7.90;3.60;;;17.80;99.90;;;;;;5043210;28;20041;-42
2022/08/23 04:12:26;;;;;;;6.22;4.32;;;17.80;99.90;;;;;;5040871;28;20433;-45
2022/08/23 04:14:52;;;;;;;6.97;4.90;;;17.80;99.90;;;;;;5041253;28;20037;-43
2022/08/23 04:17:19;;;;;;;8.30;4.43;;;17.80;99.90;;;;;;5048003;28;20033;-41
2022/08/23 04:19:45;;;;;;;8.57;5.05;;;17.80;99.90;;;;;;5046468;28;20155;-41
2022/08/23 04:22:16;;;;;;;7.68;5.30;;;17.80;99.90;;;;;;5039522;28;20518;-39
2022/08/23 04:24:42;;;;;;;8.23;5.97;;;17.90;99.90;;;;;;5040465;28;20041;-38
2022/08/23 04:27:09;;;;;;;8.88;6.00;;;17.90;99.90;;;;;;5038997;28;20049;-38
2022/08/23 04:29:37;;;;;;;9.45;6.22;;;17.90;99.90;;;;;;5038594;28;20112;-42
2022/08/23 04:32:03;;;;;;;7.65;4.93;;;17.90;99.90;;;;;;5042629;28;20087;-36
2022/08/23 04:34:29;;;;;;;9.65;5.82;;;17.90;99.90;;;;;;5042983;28;20408;-40
2022/08/23 04:36:54;;;;;;;10.55;6.43;;;17.90;99.90;;;;;;5036812;28;20100;-38
2022/08/23 04:39:20;;;;;;;7.53;5.53;;;17.90;99.90;;;;;;5039957;28;20037;-41
2022/08/23 04:44:30;;;;;;;9.90;6.65;;;17.90;99.90;;;;;;5040352;28;20045;-39
2022/08/23 04:46:56;;;;;;;8.32;6.80;;;17.90;99.90;;;;;;5038965;28;20175;-42
2022/08/23 04:49:22;;;;;;;8.52;5.35;;;17.90;99.90;;;;;;5044075;28;20611;-42
2022/08/23 04:51:48;;;;;;;10.57;5.88;;;18.00;99.90;;;;;;5043967;28;20037;-41
2022/08/23 04:54:14;;;;;;;12.25;6.78;;;18.00;99.90;;;;;;5042358;28;20052;-40
2022/08/23 04:56:41;;;;;;;10.05;6.82;;;18.00;99.90;;;;;;5041647;28;20037;-40
2022/08/23 04:59:07;;;;;;;10.60;7.18;;;18.00;99.90;;;;;;5038188;28;20466;-39
2022/08/23 05:01:33;;;;;;;10.05;7.45;;;18.00;99.90;;;;;;5036579;28;20037;-41
2022/08/23 05:04:00;;;;;;;10.07;6.28;;;18.10;99.90;;;;;;5042942;28;20423;-37
2022/08/23 05:06:27;;;;;;;7.43;5.55;;;18.10;99.90;;;;;;5042046;28;20056;-43
2022/08/23 05:08:53;;;;;;;8.30;6.57;;;18.10;99.90;;;;;;5041364;28;20619;-40
2022/08/23 05:11:19;;;;;;;11.90;7.47;;;18.20;99.90;;;;;;5036771;28;20640;-37
2022/08/23 05:13:46;;;;;;;9.90;6.22;;;18.20;99.90;;;;;;5042098;28;20036;-45
2022/08/23 05:16:12;;;;;;;11.50;8.00;;;18.30;99.90;;;;;;5038128;28;20052;-41
2022/08/23 05:18:38;;;;;;;9.50;6.65;;;18.20;99.90;;;;;;5037855;28;20131;-36
2022/08/23 05:21:04;;;;;;;9.63;7.20;;;18.30;99.90;;;;;;5039659;28;20936;-39
2022/08/23 05:23:30;;;;;;;8.98;7.13;;;18.30;99.90;;;;;;5039310;28;20037;-40
2022/08/23 05:25:57;;;;;;;8.40;6.38;;;18.40;99.90;;;;;;5037811;28;20045;-39
2022/08/23 05:28:29;;;;;;;13.23;8.75;;;18.40;99.90;;;;;;5038657;28;20046;-45
2022/08/23 05:31:02;;;;;;;9.93;5.75;;;18.40;99.90;;;;;;5038198;28;20120;-41
2022/08/23 05:33:28;;;;;;;;;;;18.40;99.90;;;;;;5034699;28;20045;-40
2022/08/23 05:35:54;;;;;;;10.15;7.57;;;18.40;99.90;;;;;;5036999;28;19967;-38
2022/08/23 05:38:21;;;;;;;10.80;7.80;;;18.40;99.90;;;;;;5042388;28;20114;-42
2022/08/23 05:40:50;;;;;;;12.15;8.57;;;18.40;99.90;;;;;;5039891;28;20052;-40
2022/08/23 05:43:16;;;;;;;9.50;7.53;;;18.40;99.90;;;;;;5034716;28;20045;-40
2022/08/23 05:45:42;;;;;;;11.20;7.35;;;18.40;99.90;;;;;;5037302;28;20039;-39
2022/08/23 05:48:08;;;;;;;15.60;8.07;;;18.40;99.90;;;;;;5038348;28;20530;-42
2022/08/23 05:50:36;;;;;;;11.90;7.75;;;18.40;99.90;;;;;;5034082;28;20052;-41
2022/08/23 05:53:02;;;;;;;11.55;8.85;;;18.40;99.90;;;;;;5039369;28;20045;-42
2022/08/23 05:55:28;;;;;;;11.63;7.32;;;18.40;99.90;;;;;;5038788;28;20068;-41
2022/08/23 05:57:53;;;;;;;15.43;8.15;;;18.40;99.90;;;;;;5038069;28;20033;-41
2022/08/23 06:00:20;;;;;;;13.00;8.35;;;18.40;99.90;;;;;;5039376;28;20043;-37
2022/08/23 06:02:48;;;;;;;11.18;7.30;;;18.30;99.90;;;;;;5036927;28;20045;-41
2022/08/23 06:05:14;;;;;;;11.48;8.77;;;18.30;99.90;;;;;;5046761;28;20037;-39
2022/08/23 06:07:40;;;;;;;9.20;6.82;;;18.30;99.90;;;;;;5046188;28;20072;-39
2022/08/23 06:10:08;;;;;;;10.02;7.15;;;18.30;99.90;;;;;;5041996;28;20116;-47
2022/08/23 06:12:34;;;;;;;8.95;6.57;;;18.30;99.90;;;;;;5036617;28;20033;-41
2022/08/23 06:15:00;;;;;;;9.88;7.28;;;18.40;99.90;;;;;;5039916;28;20072;-39
2022/08/23 06:17:26;;;;;;;10.60;7.05;;;18.40;99.90;;;;;;5040721;28;20040;-38
2022/08/23 06:19:52;;;;;;;11.38;8.02;;;18.40;99.90;;;;;;5034214;28;20045;-41
2022/08/23 06:22:18;;;;;;;11.32;8.48;;;18.40;99.90;;;;;;5039403;28;20045;-38
2022/08/23 06:24:44;;;;;;;9.38;7.18;;;18.40;99.90;;;;;;5039443;28;20045;-42
2022/08/23 06:27:10;;;;;;;8.95;5.75;;;18.40;99.90;;;;;;5038253;28;20041;-38
2022/08/23 06:29:37;;;;;;;10.23;7.45;;;18.50;99.90;;;;;;5032037;28;20044;-42
2022/08/23 06:32:03;;;;;;;9.88;6.53;;;18.60;99.90;;;;;;5041426;28;20094;-42
2022/08/23 06:34:32;;;;;;;7.72;6.53;;;18.70;99.90;;;;;;5043378;28;20085;-41
2022/08/23 06:37:10;;;;;;;9.35;7.82;;;18.90;99.90;;;;;;5037590;28;20119;-39
2022/08/23 06:39:37;;;;;;;8.77;6.85;;;19.00;99.90;;;;;;5035444;28;20037;-37
2022/08/23 06:42:14;;;;;;;9.20;5.40;;;19.10;99.90;;;;;;5037939;28;20494;-42
2022/08/23 06:44:40;;;;;;;8.85;7.40;;;19.10;99.90;;;;;;5034293;28;20045;-41
2022/08/23 06:47:08;;;;;;;8.93;6.60;;;19.30;99.90;;;;;;5040102;28;20041;-41
2022/08/23 06:49:34;;;;;;;9.63;6.72;;;19.30;99.90;;;;;;5036416;28;20029;-42
2022/08/23 06:52:03;;;;;;;9.13;6.78;;;19.50;99.90;;;;;;5045134;28;20040;-42
2022/08/23 06:54:31;;;;;;;9.02;6.70;;;19.50;99.90;;;;;;5043397;28;20115;-42
2022/08/23 06:56:57;;;;;;;12.02;7.30;;;19.70;99.90;;;;;;5033328;28;20040;-42
2022/08/23 06:59:23;;;;;;;10.13;7.80;;;19.70;99.90;;;;;;5040161;28;20037;-38
2022/08/23 07:01:53;;;;;;;8.15;5.43;;;19.90;99.90;;;;;;5040498;28;21688;-40
2022/08/23 07:04:25;;;;;;;12.75;5.88;;;20.00;99.90;;;;;;5037246;28;20561;-44
2022/08/23 07:06:50;;;;;;;10.85;7.07;;;20.10;99.90;;;;;;5037956;28;20124;-41
2022/08/23 07:09:17;;;;;;;10.48;6.53;;;20.20;99.90;;;;;;5037589;28;20613;-45
2022/08/23 07:11:44;;;;;;;8.32;6.57;;;20.30;99.90;;;;;;5039867;28;20171;-42
2022/08/23 07:14:13;;;;;;;7.55;6.38;;;20.30;99.90;;;;;;5042879;28;20071;-44
2022/08/23 07:16:44;;;;;;;7.80;5.65;;;20.40;99.90;;;;;;5039152;28;20520;-45
2022/08/23 07:19:11;;;;;;;10.07;5.65;;;20.50;99.90;;;;;;5036724;28;20065;-44
2022/08/23 07:21:37;;;;;;;7.80;6.13;;;20.60;99.90;;;;;;5036561;28;20510;-40
2022/08/23 07:24:04;;;;;;;8.05;6.10;;;20.70;99.90;;;;;;5039244;28;20037;-44
2022/08/23 07:26:31;;;;;;;9.27;6.05;;;20.80;99.90;;;;;;5038786;28;20157;-40
2022/08/23 07:28:56;;;;;;;5.68;3.65;;;20.80;99.90;;;;;;5035777;28;20030;-47
2022/08/23 07:31:29;;;;;;;8.10;6.80;;;21.00;98.70;;;;;;5040607;28;20033;-47
2022/08/23 07:33:58;;;;;;;8.13;6.13;;;21.10;98.40;;;;;;5040121;28;20129;-44
2022/08/23 07:36:25;;;;;;;7.90;6.25;;;21.20;98.00;;;;;;5051480;28;20064;-43
2022/08/23 07:38:52;;;;;;;12.32;7.25;;;21.20;97.80;;;;;;5047189;28;20083;-45
2022/08/23 07:41:19;;;;;;;8.18;6.43;;;21.30;97.60;;;;;;5041913;28;20045;-48
2022/08/23 07:43:45;;;;;;;7.97;6.22;;;21.50;97.50;;;;;;5040368;28;20408;-42
2022/08/23 07:46:11;;;;;;;10.15;7.53;;;21.60;97.30;;;;;;5041424;28;20552;-39
2022/08/23 07:48:38;;;;;;;9.65;6.65;;;21.70;97.20;;;;;;5040031;28;20124;-43
2022/08/23 07:51:08;;;;;;;9.35;6.97;;;21.70;96.80;;;;;;5042114;28;20088;-46
2022/08/23 07:53:35;;;;;;;7.68;6.15;;;21.80;97.30;;;;;;5042213;28;20037;-44
2022/08/23 07:56:05;;;;;;;10.35;6.68;;;21.80;96.60;;;;;;5044424;28;20047;-44
2022/08/23 07:58:31;;;;;;;6.10;3.25;;;21.80;96.40;;;;;;5042056;28;20056;-44
2022/08/23 08:01:07;;;;;;;6.60;3.22;;;21.80;96.10;;;;;;5043597;28;20037;-44
2022/08/23 08:03:32;;;;;;;10.23;3.95;;;21.90;95.50;;;;;;5041660;28;20376;-43
2022/08/23 08:05:59;;;;;;;7.57;6.03;;;22.00;95.20;;;;;;5044338;28;20036;-43
2022/08/23 08:08:25;;;;;;;10.43;5.93;;;22.10;95.50;;;;;;5040009;28;20114;-46
2022/08/23 08:10:53;;;;;;;11.13;7.30;;;22.10;95.50;;;;;;5042201;28;20034;-44
2022/08/23 08:13:19;;;;;;;8.93;5.70;;;22.20;95.60;;;;;;5041423;28;21682;-43
2022/08/23 08:15:45;;;;;;;5.82;4.93;;;22.20;95.70;;;;;;5043753;28;20765;-38
2022/08/23 08:18:10;;;;;;;9.38;7.07;;;22.30;95.50;;;;;;5038022;28;20206;-42
2022/08/23 08:20:36;;;;;;;10.80;7.20;;;22.40;95.70;;;;;;5038160;28;20045;-43
2022/08/23 08:23:03;;;;;;;9.52;5.65;;;22.30;95.70;;;;;;5038174;28;20065;-43
2022/08/23 08:25:31;;;;;;;8.48;6.63;;;22.30;95.80;;;;;;5038075;28;20570;-44
2022/08/23 08:27:57;;;;;;;10.25;7.47;;;22.30;96.00;;;;;;5039938;28;20417;-43
2022/08/23 08:30:23;;;;;;;6.82;4.63;;;22.40;96.10;;;;;;5044313;28;20041;-45
2022/08/23 08:32:48;;;;;;;9.15;5.93;;;22.40;95.40;;;;;;5040233;28;20033;-45
2022/08/23 08:35:14;;;;;;;5.88;3.70;;;22.60;95.00;;;;;;5038005;28;20644;-39
2022/08/23 08:37:43;;;;;;;11.90;7.63;;;22.70;94.50;;;;;;5039461;28;20566;-45
2022/08/23 08:40:10;;;;;;;8.45;5.95;;;22.80;94.50;;;;;;5038469;28;20090;-46
2022/08/23 08:43:26;;;;;;;10.85;6.97;;;22.90;94.60;;;;;;5042704;28;20090;-42
2022/08/23 08:46:05;;;;;;;10.20;7.60;;;22.90;94.40;;;;;;5041977;28;20120;-45
2022/08/23 08:48:44;;;;;;;11.77;8.95;;;23.10;94.50;;;;;;5046398;28;20440;-42
2022/08/23 08:51:18;;;;;;;8.13;5.50;;;23.20;94.20;;;;;;5041192;28;20140;-40
2022/08/23 08:53:46;;;;;;;12.07;6.32;;;23.30;93.10;;;;;;5038882;28;20037;-44
2022/08/23 08:56:22;;;;;;;9.30;6.05;;;23.40;93.50;;;;;;5035641;28;20049;-43
2022/08/23 08:58:54;;;;;;;9.68;7.00;;;23.40;93.10;;;;;;5039530;28;20037;-46
2022/08/23 09:01:21;;;;;;;;;;;23.50;93.30;;;;;;5035233;28;20047;-41
2022/08/23 09:03:47;;;;;;;9.23;7.40;;;23.60;93.30;;;;;;5040735;28;19928;-42
2022/08/23 09:06:25;;;;;;;10.93;7.82;;;23.80;93.10;;;;;;5046458;28;20037;-38
2022/08/23 09:09:07;;;;;;;10.30;7.68;;;23.90;92.70;;;;;;5037409;28;20407;-42
2022/08/23 09:12:07;;;;;;;11.15;7.95;;;24.00;92.40;;;;;;5045055;28;20033;-42
2022/08/23 09:14:49;;;;;;;13.98;7.82;;;24.20;92.50;;;;;;5043411;28;20070;-39
2022/08/23 09:17:19;;;;;;;9.52;7.43;;;24.30;92.40;;;;;;5045898;28;20040;-42
2022/08/23 09:19:48;;;;;;;10.80;6.93;;;24.40;92.40;;;;;;5042869;28;20061;-41
2022/08/23 09:22:23;;;;;;;10.43;7.63;;;24.50;92.00;;;;;;5047163;28;20041;-41
2022/08/23 09:24:48;;;;;;;8.73;6.85;;;24.60;91.60;;;;;;5037855;28;20064;-36
2022/08/23 09:27:14;;;;;;;10.73;6.75;;;24.70;91.60;;;;;;5037016;28;20493;-43
2022/08/23 09:29:51;;;;;;;9.40;7.40;;;24.80;91.40;;;;;;5037538;28;20056;-40
2022/08/23 09:32:36;;;;;;;9.23;7.00;;;25.00;90.10;;;;;;5042077;28;20033;-43
2022/08/23 09:35:23;;;;;;;8.85;5.72;;;25.10;89.50;;;;;;5041332;28;20045;-43
2022/08/23 09:38:00;;;;;;;7.90;5.88;;;25.20;88.50;;;;;;5037398;28;20097;-46
2022/08/23 09:40:36;;;;;;;10.98;6.03;;;25.30;87.70;;;;;;5042804;28;20037;-40
2022/08/23 09:43:20;;;;;;;8.43;6.50;;;25.30;86.80;;;;;;5042315;28;20045;-40
2022/08/23 09:45:49;;;;;;;9.52;5.90;;;25.50;86.10;;;;;;5036915;28;20037;-39
2022/08/23 09:48:35;;;;;;;9.63;6.57;;;25.80;85.20;;;;;;5035201;28;20063;-44
2022/08/23 09:51:07;;;;;;;8.75;6.53;;;25.90;83.60;;;;;;5041928;28;20156;-40
2022/08/23 09:53:33;;;;;;;11.45;7.15;;;25.90;84.50;;;;;;5038506;28;20052;-47
2022/08/23 09:56:13;;;;;;;9.63;6.60;;;25.90;84.50;;;;;;5034553;28;20041;-43
2022/08/23 09:58:43;;;;;;;9.90;6.82;;;25.90;81.70;;;;;;5040324;28;20036;-45
2022/08/23 10:01:20;;;;;;;9.75;7.05;;;26.10;82.10;;;;;;5040726;28;20426;-44
2022/08/23 10:04:04;;;;;;;7.93;6.07;;;26.20;79.60;;;;;;5037808;28;20065;-42
2022/08/23 10:06:33;;;;;;;7.57;5.53;;;26.30;78.80;;;;;;5038339;28;20064;-40
2022/08/23 10:09:03;;;;;;;14.30;6.40;;;26.40;77.20;;;;;;5035989;28;20048;-46
2022/08/23 10:11:34;;;;;;;8.45;5.00;;;26.60;76.40;;;;;;5042094;28;20126;-48
2022/08/23 10:14:00;;;;;;;6.65;4.10;;;26.60;75.20;;;;;;5037462;28;20258;-47
2022/08/23 10:16:44;;;;;;;8.43;4.15;;;26.70;74.20;;;;;;5046012;28;20033;-46
2022/08/23 10:19:30;;;;;;;7.53;5.32;;;26.80;70.50;;;;;;5038384;28;20049;-42
2022/08/23 10:22:19;;;;;;;7.50;4.70;;;27.00;71.10;;;;;;5043904;28;20511;-45
2022/08/23 10:25:11;;;;;;;9.25;4.65;;;27.10;72.30;;;;;;5040634;28;20072;-49
2022/08/23 10:31:00;;;;;;;6.97;4.57;;;27.20;69.40;;;;;;5040730;28;20303;-45
2022/08/23 10:33:53;;;;;;;6.32;3.70;;;27.30;68.70;;;;;;5044157;28;20060;-44
2022/08/23 10:36:27;;;;;;;6.10;2.78;;;27.30;67.80;;;;;;5041228;28;20084;-40
2022/08/23 10:39:08;;;;;;;5.45;2.70;;;27.40;66.40;;;;;;5040189;28;20098;-45
2022/08/23 10:41:42;;;;;;;4.97;2.60;;;27.50;61.10;;;;;;5036302;28;20076;-47
2022/08/23 10:44:26;;;;;;;8.73;4.22;;;27.60;59.50;;;;;;5036518;28;20040;-39
2022/08/23 10:47:29;;;;;;;8.35;4.22;;;27.70;59.10;;;;;;5035278;28;20045;-34
2022/08/23 10:49:59;;;;;;;8.30;3.47;;;27.80;56.30;;;;;;5038467;28;20064;-37
2022/08/23 10:52:33;;;;;;;8.45;3.85;;;27.90;57.60;;;;;;5035813;28;20140;-38
2022/08/23 10:55:15;;;;;;;7.20;3.10;;;28.10;56.10;;;;;;5033590;28;20402;-45
2022/08/23 10:57:45;;;;;;;6.13;3.63;;;28.30;55.40;;;;;;5043391;28;20064;-47
2022/08/23 11:00:16;;;;;;;9.50;3.65;;;28.40;53.00;;;;;;5026604;28;20129;-44
2022/08/23 11:02:56;;;;;;;9.20;3.22;;;28.60;52.00;;;;;;5039734;28;20056;-44
2022/08/23 11:05:27;;;;;;;8.98;2.33;;;28.80;50.80;;;;;;5041410;28;20048;-45
2022/08/23 11:08:28;;;;;;;5.57;2.90;;;29.00;49.70;;;;;;5039036;28;20571;-38
2022/08/23 11:10:55;;;;;;;4.40;2.97;;;29.10;47.40;;;;;;5036039;28;20106;-40
2022/08/23 11:13:24;;;;;;;7.45;3.30;;;29.10;47.80;;;;;;5037901;28;20510;-47
2022/08/23 11:15:57;;;;;;;6.25;3.00;;;29.10;47.00;;;;;;5040475;28;20028;-44
2022/08/23 11:18:37;;;;;;;7.72;3.00;;;29.10;46.40;;;;;;5037679;28;20056;-46
2022/08/23 11:21:06;;;;;;;7.57;3.20;;;29.00;46.70;;;;;;5033681;28;20053;-52
2022/08/23 11:23:57;;;;;;;7.05;2.53;;;29.10;47.50;;;;;;5040066;28;20049;-41
2022/08/23 11:26:30;;;;;;;4.45;2.38;;;29.10;46.80;;;;;;5036992;28;20059;-47
2022/08/23 11:29:04;;;;;;;3.90;1.95;;;29.00;45.70;;;;;;5038915;28;20047;-46
2022/08/23 11:31:57;;;;;;;8.25;2.35;;;29.00;45.10;;;;;;5040067;28;20123;-40
2022/08/23 11:34:32;;;;;;;3.05;1.52;;;29.00;45.40;;;;;;5037482;28;20203;-43
2022/08/23 11:37:28;;;;;;;3.45;1.60;;;29.10;45.50;;;;;;5041801;28;20045;-45
2022/08/23 11:39:57;;;;;;;3.30;1.67;;;29.30;44.60;;;;;;5041684;28;20049;-50
2022/08/23 11:42:45;;;;;;;3.30;1.65;;;29.40;44.60;;;;;;5043851;28;20041;-46
2022/08/23 11:45:34;;;;;;;5.88;1.90;;;29.60;44.30;;;;;;5037336;28;20065;-48
2022/08/23 11:48:35;;;;;;;6.60;1.73;;;29.70;43.60;;;;;;5042641;28;20029;-40
2022/08/23 11:51:07;;;;;;;4.15;2.00;;;29.80;43.40;;;;;;5038137;28;20041;-47
2022/08/23 11:53:39;;;;;;;3.65;1.83;;;30.00;43.20;;;;;;5036674;28;20536;-48
2022/08/23 11:56:14;;;;;;;3.80;1.52;;;30.10;42.60;;;;;;5044737;28;20069;-43
2022/08/23 11:59:01;;;;;;;2.58;1.52;;;30.10;42.20;;;;;;5036720;28;20039;-38
2022/08/23 12:01:38;;;;;;;3.30;1.00;;;30.10;41.20;;;;;;5040554;28;20048;-48
2022/08/23 12:04:13;;;;;;;3.30;1.27;;;30.00;40.30;;;;;;5033414;28;20444;-45
2022/08/23 12:06:56;;;;;;;7.25;1.20;;;30.00;40.40;;;;;;5036677;28;20029;-49
2022/08/23 12:09:22;;;;;;;7.55;1.48;;;30.00;40.20;;;;;;5039305;28;20041;-42
2022/08/23 12:11:54;;;;;;;4.35;1.40;;;30.00;40.50;;;;;;5035456;28;20048;-45
2022/08/23 12:14:44;;;;;;;7.80;1.65;;;30.10;40.10;;;;;;5039474;28;20076;-48
2022/08/23 12:17:17;;;;;;;6.88;1.75;;;30.10;39.60;;;;;;5037255;28;20136;-46
2022/08/23 12:19:52;;;;;;;2.92;1.30;;;30.20;40.10;;;;;;5041423;28;20069;-46
2022/08/23 12:22:23;;;;;;;9.73;1.70;;;30.30;39.40;;;;;;5038503;28;20131;-46
2022/08/23 12:24:59;;;;;;;4.75;1.67;;;30.40;39.20;;;;;;5043507;28;20071;-47
2022/08/23 12:27:49;;;;;;;4.35;2.03;;;30.70;39.10;;;;;;5040684;28;20109;-41
2022/08/23 12:30:19;;;;;;;6.30;2.25;;;31.10;37.50;;;;;;5042765;28;20033;-49
2022/08/23 12:33:03;;;;;;;4.50;1.60;;;31.10;38.10;;;;;;5039479;28;20033;-44
2022/08/23 12:35:51;;;;;;;3.25;1.58;;;31.30;37.80;;;;;;5036406;28;20052;-40
2022/08/23 12:38:31;;;;;;;4.75;1.67;;;31.20;37.80;;;;;;5037500;28;20040;-44
2022/08/23 12:40:57;;;;;;;3.28;1.85;;;31.30;38.50;;;;;;5037144;28;20051;-44
2022/08/23 12:43:29;;;;;;;5.68;2.05;;;31.60;38.20;;;;;;5039278;28;20049;-44
2022/08/23 12:45:56;;;;;;;;;;;31.80;37.90;;;;;;5038720;28;20036;-41
2022/08/23 12:48:25;;;;;;;4.00;1.52;;;31.80;37.80;;;;;;5038780;28;20435;-46
2022/08/23 12:50:55;;;;;;;4.28;2.20;;;31.80;39.00;;;;;;5036250;28;20494;-41
2022/08/23 12:53:29;;;;;;;3.42;1.90;;;31.60;37.80;;;;;;5039056;28;20394;-41
2022/08/23 12:56:01;;;;;;;4.07;2.13;;;31.30;37.80;;;;;;5035286;28;20397;-42
2022/08/23 12:58:30;;;;;;;4.85;2.03;;;30.90;38.10;;;;;;5037338;28;20494;-45
2022/08/23 13:00:59;;;;;;;3.40;1.80;;;30.50;38.80;;;;;;5040394;28;20798;-42
2022/08/23 13:03:43;;;;;;;4.40;1.65;;;30.40;39.80;;;;;;5037230;28;20407;-40
2022/08/23 13:06:13;;;;;;;4.22;1.65;;;30.20;40.30;;;;;;5037786;28;20041;-45
2022/08/23 13:08:49;;;;;;;3.88;1.70;;;30.10;40.80;;;;;;5041848;28;20571;-48
2022/08/23 13:11:19;;;;;;;3.95;2.17;;;29.90;42.20;;;;;;5036102;28;20111;-45
2022/08/23 13:13:47;;;;;;;6.00;1.98;;;29.80;42.50;;;;;;5038329;28;20123;-46
2022/08/23 13:16:42;;;;;;;3.88;1.80;;;29.60;43.10;;;;;;5039942;28;20405;-44